Pagrindinis puslapis
METAR-TAF:

METAR-TAF

Oro uostai :

Poris, Suomija

platuma: 61-28N, ilguma: 021-48E, Aukštis: 13 m

Dabartinis oras

Ataskaita buvo paskelbta 18 minutes, ne 06:20 UTC
Vėjas 6 kt iš Pietų
Temperatūra -4°C
Drėgmė 80%
Slėgis 991 hPa
Matomumas 10 km arba daugiau
Apsiniaukę ne aukštis 4200 ft
sniegas

METAR: EFPO 020620Z AUTO 17006KT 9999 -SHSN OVC042 M04/M07 Q0991

Laikas: 08:38 (06:38 UTC)

Prognozė

Ataskaita buvo paskelbta 1 valandą ir 16 minutes, ne 05:22 UTC
Prognozė galioja nuo 02 metu 06 UTC su 02 metu 15 UTC
Vėjas 6 kt iš Pietų/Pietryčių
Matomumas 10 km arba daugiau
Su prošvaistėmis ne aukštis 3500 ft
sniegas
Tikimybė 30% :
Laikinai
nuo 02 metu 06 UTC su 02 metu 08 UTC
Matomumas: 6000 m

TAF: EFPO 020522Z 0206/0215 16006KT 9999 -SHSN BKN035 PROB30 TEMPO 0206/0208 6000

Orai ataskaitas ir orų prognozės (METAR, TAF).

turimą stotys yra geltonos ir raudonos taškus žemėlapyje.

Perkelti pele per norėdami pamatyti stoties vardą.

Tada spustelėkite, norėdami matyti oro stebėjimo ir prognozės.

Norėdami pakeisti žemėlapį: spustelėkite ant žalios mygtukų su juodo kryžiaus žemyn,; žalią mygtuką su brūkšneliu, jei norite nutolinti; arba žalių rodyklių gretimoms žemėlapius.


METAR-TAF: